Time;durP1;ratioP1;P1;durP2;ratioP2;P2;SDS_P1;SDS_P2;PMS_P1;PMS_P2;Temp;Humidity;BMP_temperature;BMP_pressure;BME280_temperature;BME280_humidity;BME280_pressure;Samples;Min_cycle;Max_cycle;Signal;HPM_P1;HPM_P2
2023/12/07 00:02:04;;;;;;;1.08;1.08;;;2.00;99.90;;;;;;5041803;28;20045;-73
2023/12/07 00:04:29;;;;;;;0.47;0.47;;;1.90;99.90;;;;;;5023876;28;20042;-73
2023/12/07 00:06:55;;;;;;;0.50;0.50;;;2.00;99.90;;;;;;5016290;28;20080;-73
2023/12/07 00:09:21;;;;;;;1.60;1.55;;;1.90;99.90;;;;;;5017483;28;20388;-73
2023/12/07 00:11:46;;;;;;;0.77;0.77;;;2.00;99.90;;;;;;5026909;28;20098;-73
2023/12/07 00:14:12;;;;;;;0.75;0.70;;;1.90;99.90;;;;;;5038424;28;20391;-73
2023/12/07 00:16:37;;;;;;;0.82;0.82;;;1.90;99.90;;;;;;5014905;28;20112;-73
2023/12/07 00:19:03;;;;;;;1.00;0.88;;;1.90;99.90;;;;;;5023801;28;20057;-73
2023/12/07 00:21:29;;;;;;;1.38;1.08;;;1.90;99.90;;;;;;5019670;28;20120;-73
2023/12/07 00:23:54;;;;;;;0.50;0.50;;;1.90;99.90;;;;;;5027217;28;20561;-73
2023/12/07 00:26:20;;;;;;;0.73;0.73;;;1.90;99.90;;;;;;5027038;28;20139;-73
2023/12/07 00:28:45;;;;;;;1.10;1.10;;;1.90;99.90;;;;;;5012132;28;20048;-73
2023/12/07 00:31:11;;;;;;;3.47;1.60;;;1.90;99.90;;;;;;5010992;28;20525;-73
2023/12/07 00:33:37;;;;;;;0.50;0.50;;;1.90;99.90;;;;;;5020502;28;20204;-73
2023/12/07 00:36:04;;;;;;;0.77;0.77;;;1.80;99.90;;;;;;5026275;28;20150;-73
2023/12/07 00:38:32;;;;;;;2.10;1.17;;;1.90;99.90;;;;;;5036355;28;20530;-73
2023/12/07 00:40:57;;;;;;;0.50;0.50;;;1.80;99.90;;;;;;5014024;28;20050;-73
2023/12/07 00:43:23;;;;;;;1.10;1.10;;;1.80;99.90;;;;;;5023163;28;20115;-73
2023/12/07 00:45:49;;;;;;;0.77;0.77;;;1.90;99.90;;;;;;5012729;28;20045;-73
2023/12/07 00:48:14;;;;;;;0.60;0.60;;;1.80;99.90;;;;;;5019309;28;20073;-73
2023/12/07 00:50:40;;;;;;;1.13;1.02;;;1.80;99.90;;;;;;5015899;28;20095;-73
2023/12/07 00:53:05;;;;;;;0.50;0.50;;;1.80;99.90;;;;;;5026943;28;20136;-73
2023/12/07 00:55:31;;;;;;;0.30;0.30;;;1.80;99.90;;;;;;5013514;28;20136;-73
2023/12/07 00:57:57;;;;;;;0.70;0.70;;;1.80;99.90;;;;;;5041720;28;20373;-73
2023/12/07 01:00:22;;;;;;;3.15;1.25;;;1.80;99.90;;;;;;5021381;28;20819;-73
2023/12/07 01:02:48;;;;;;;0.50;0.50;;;1.80;99.90;;;;;;5016768;28;20064;-73
2023/12/07 01:05:13;;;;;;;0.65;0.65;;;1.80;99.90;;;;;;5014460;28;20534;-73
2023/12/07 01:07:39;;;;;;;0.90;0.90;;;1.80;99.90;;;;;;5020863;28;20041;-73
2023/12/07 01:10:05;;;;;;;0.63;0.63;;;1.80;99.90;;;;;;5012181;28;20348;-73
2023/12/07 01:12:31;;;;;;;1.33;0.77;;;1.80;99.90;;;;;;5037998;28;20410;-73
2023/12/07 01:14:57;;;;;;;0.52;0.52;;;1.80;99.90;;;;;;5031245;28;20041;-73
2023/12/07 01:17:22;;;;;;;0.60;0.60;;;1.80;99.90;;;;;;5014843;28;20049;-73
2023/12/07 01:19:48;;;;;;;0.70;0.70;;;1.80;99.90;;;;;;5026696;28;20547;-73
2023/12/07 01:22:13;;;;;;;2.55;1.35;;;1.80;99.90;;;;;;5009696;28;20068;-72
2023/12/07 01:24:39;;;;;;;1.33;1.25;;;1.80;99.90;;;;;;5021667;28;20046;-73
2023/12/07 01:27:05;;;;;;;1.48;1.10;;;1.80;99.90;;;;;;5015420;28;20457;-73
2023/12/07 01:29:30;;;;;;;0.90;0.90;;;1.80;99.90;;;;;;5019812;28;20053;-73
2023/12/07 01:31:56;;;;;;;0.93;0.93;;;1.80;99.90;;;;;;5024467;28;20036;-73
2023/12/07 01:34:21;;;;;;;0.70;0.70;;;1.80;99.90;;;;;;5046372;28;20057;-73
2023/12/07 01:36:47;;;;;;;0.50;0.50;;;1.80;99.90;;;;;;5035620;28;20072;-73
2023/12/07 01:39:13;;;;;;;0.38;0.38;;;1.80;99.90;;;;;;5011762;28;20045;-73
2023/12/07 01:41:40;;;;;;;0.88;0.88;;;1.80;99.90;;;;;;5022640;28;20042;-73
2023/12/07 01:44:05;;;;;;;0.80;0.80;;;1.80;99.90;;;;;;5011612;28;20490;-73
2023/12/07 01:46:33;;;;;;;1.75;1.35;;;1.80;99.90;;;;;;5009839;28;20049;-73
2023/12/07 01:48:59;;;;;;;0.60;0.60;;;1.80;99.90;;;;;;5013383;28;20068;-73
2023/12/07 01:51:26;;;;;;;0.82;0.82;;;1.80;99.90;;;;;;5009316;28;20172;-73
2023/12/07 01:53:52;;;;;;;0.40;0.40;;;1.80;99.90;;;;;;5040042;28;20127;-72
2023/12/07 01:56:18;;;;;;;4.38;0.90;;;1.80;99.90;;;;;;5026263;28;20098;-73
2023/12/07 01:58:44;;;;;;;0.60;0.60;;;1.80;99.90;;;;;;5016813;28;20045;-73
2023/12/07 02:01:11;;;;;;;1.63;0.65;;;1.80;99.90;;;;;;5018687;28;20457;-73
2023/12/07 02:03:39;;;;;;;0.82;0.80;;;1.80;99.90;;;;;;5010004;28;20513;-73
2023/12/07 02:06:05;;;;;;;1.35;0.95;;;1.80;99.90;;;;;;5011120;28;20049;-72
2023/12/07 02:08:31;;;;;;;0.70;0.70;;;1.80;99.90;;;;;;5021903;28;20038;-73
2023/12/07 02:10:57;;;;;;;1.15;0.70;;;1.80;99.90;;;;;;5012775;28;20518;-73
2023/12/07 02:13:22;;;;;;;0.70;0.70;;;1.80;99.90;;;;;;5039817;28;20049;-73
2023/12/07 02:15:50;;;;;;;0.50;0.50;;;1.80;99.90;;;;;;5025289;28;20068;-72
2023/12/07 02:18:45;;;;;;;0.80;0.80;;;1.80;99.90;;;;;;5025393;28;20490;-73
2023/12/07 02:21:21;;;;;;;1.15;0.65;;;1.80;99.90;;;;;;5014548;28;20565;-73
2023/12/07 02:23:50;;;;;;;0.60;0.60;;;1.80;99.90;;;;;;5025466;28;20809;-73
2023/12/07 02:26:18;;;;;;;1.08;1.08;;;1.80;99.90;;;;;;5008941;28;20054;-73
2023/12/07 02:28:44;;;;;;;0.60;0.60;;;1.80;99.90;;;;;;5039742;28;20072;-73
2023/12/07 02:31:09;;;;;;;1.75;1.13;;;1.90;99.90;;;;;;5029689;28;20526;-73
2023/12/07 02:33:35;;;;;;;0.63;0.63;;;1.80;99.90;;;;;;5018450;28;20497;-73
2023/12/07 02:36:01;;;;;;;1.13;1.05;;;1.80;99.90;;;;;;5022431;28;20156;-73
2023/12/07 02:38:28;;;;;;;3.78;1.40;;;1.90;99.90;;;;;;5026546;28;20041;-73
2023/12/07 02:40:55;;;;;;;0.75;0.60;;;1.80;99.90;;;;;;5017062;28;20049;-73
2023/12/07 02:43:22;;;;;;;0.63;0.63;;;1.80;99.90;;;;;;5027130;28;20629;-73
2023/12/07 02:45:48;;;;;;;1.75;0.70;;;1.90;99.90;;;;;;5020883;28;20046;-73
2023/12/07 02:48:14;;;;;;;0.60;0.60;;;1.80;99.90;;;;;;5021206;28;20048;-73
2023/12/07 02:50:39;;;;;;;0.40;0.40;;;1.80;99.90;;;;;;5032302;28;20133;-73
2023/12/07 02:53:05;;;;;;;1.65;1.10;;;1.80;99.90;;;;;;5023179;28;20056;-72
2023/12/07 02:55:30;;;;;;;0.95;0.95;;;1.80;99.90;;;;;;5031363;28;20046;-73
2023/12/07 02:57:56;;;;;;;1.08;1.02;;;1.80;99.90;;;;;;5013969;28;20128;-73
2023/12/07 03:00:22;;;;;;;2.45;1.15;;;1.80;99.90;;;;;;5017484;28;20042;-73
2023/12/07 03:02:47;;;;;;;0.93;0.93;;;1.80;99.90;;;;;;5022707;28;20258;-73
2023/12/07 03:05:13;;;;;;;0.85;0.65;;;1.80;99.90;;;;;;5015298;28;20099;-73
2023/12/07 03:07:39;;;;;;;1.08;0.82;;;1.80;99.90;;;;;;5024238;28;20045;-73
2023/12/07 03:10:05;;;;;;;0.75;0.75;;;1.80;99.90;;;;;;5024279;28;20705;-73
2023/12/07 03:12:31;;;;;;;0.70;0.70;;;1.80;99.90;;;;;;5043300;28;20084;-73
2023/12/07 03:14:56;;;;;;;2.05;1.25;;;1.80;99.90;;;;;;5035901;28;20069;-73
2023/12/07 03:17:22;;;;;;;0.50;0.50;;;1.70;99.90;;;;;;5015115;28;20037;-73
2023/12/07 03:19:47;;;;;;;0.60;0.60;;;1.70;99.90;;;;;;5025717;28;20092;-73
2023/12/07 03:22:13;;;;;;;1.45;0.85;;;1.70;99.90;;;;;;5028925;28;20049;-73
2023/12/07 03:24:39;;;;;;;0.50;0.50;;;1.70;99.90;;;;;;5036509;28;20053;-73
2023/12/07 03:27:05;;;;;;;0.50;0.50;;;1.70;99.90;;;;;;5042300;28;20472;-73
2023/12/07 03:29:32;;;;;;;0.90;0.90;;;1.70;99.90;;;;;;5024098;28;20044;-73
2023/12/07 03:31:57;;;;;;;0.80;0.80;;;1.70;99.90;;;;;;5022239;28;20072;-73
2023/12/07 03:34:24;;;;;;;3.10;2.08;;;1.70;99.90;;;;;;5024470;28;20046;-73
2023/12/07 03:36:49;;;;;;;2.33;1.13;;;1.80;99.90;;;;;;5014402;28;20057;-73
2023/12/07 03:39:18;;;;;;;4.25;0.85;;;1.70;99.90;;;;;;5024667;28;20042;-73
2023/12/07 03:41:44;;;;;;;;;;;1.70;99.90;;;;;;5017215;28;20053;-73
2023/12/07 03:44:10;;;;;;;0.90;0.90;;;1.70;99.90;;;;;;5017411;28;19925;-73
2023/12/07 03:46:35;;;;;;;0.68;0.68;;;1.70;99.90;;;;;;5042803;28;20317;-73
2023/12/07 03:49:01;;;;;;;0.60;0.60;;;1.70;99.90;;;;;;5028033;28;20073;-73
2023/12/07 03:51:27;;;;;;;1.25;1.15;;;1.70;99.90;;;;;;5024496;28;20045;-73
2023/12/07 03:53:56;;;;;;;1.20;1.20;;;1.70;99.90;;;;;;5026669;28;20103;-73
2023/12/07 03:56:25;;;;;;;1.20;1.10;;;1.70;99.90;;;;;;5013510;28;20666;-73
2023/12/07 03:58:51;;;;;;;0.90;0.90;;;1.70;99.90;;;;;;5027589;28;20056;-73
2023/12/07 04:01:17;;;;;;;1.30;1.15;;;1.70;99.90;;;;;;5014950;28;20045;-73
2023/12/07 04:03:43;;;;;;;0.50;0.50;;;1.60;99.90;;;;;;5024654;28;20461;-73
2023/12/07 04:06:08;;;;;;;1.60;1.30;;;1.60;99.90;;;;;;5023994;28;20379;-73
2023/12/07 04:08:34;;;;;;;0.60;0.60;;;1.60;99.90;;;;;;5027963;28;20081;-73
2023/12/07 04:11:00;;;;;;;0.50;0.50;;;1.60;99.90;;;;;;5014209;28;20411;-73
2023/12/07 04:13:25;;;;;;;0.43;0.43;;;1.60;99.90;;;;;;5043371;28;20049;-73
2023/12/07 04:15:51;;;;;;;1.77;1.67;;;1.60;99.90;;;;;;5021639;28;20133;-73
2023/12/07 04:18:17;;;;;;;1.05;1.02;;;1.60;99.90;;;;;;5018014;28;20050;-73
2023/12/07 04:20:43;;;;;;;0.82;0.82;;;1.60;99.90;;;;;;5023299;28;20515;-74
2023/12/07 04:23:09;;;;;;;1.08;1.08;;;1.60;99.90;;;;;;5039722;28;20593;-73
2023/12/07 04:25:34;;;;;;;0.90;0.90;;;1.60;99.90;;;;;;5016286;28;20057;-73
2023/12/07 04:28:00;;;;;;;0.40;0.40;;;1.60;99.90;;;;;;5022124;28;20141;-73
2023/12/07 04:30:25;;;;;;;0.98;0.95;;;1.60;99.90;;;;;;5022654;28;20529;-73
2023/12/07 04:32:51;;;;;;;2.28;0.73;;;1.50;99.90;;;;;;5010978;28;20042;-73
2023/12/07 04:35:16;;;;;;;0.68;0.68;;;1.50;99.90;;;;;;5022945;28;20434;-73
2023/12/07 04:37:42;;;;;;;0.60;0.60;;;1.50;99.90;;;;;;5014241;28;20064;-73
2023/12/07 04:40:10;;;;;;;2.38;1.30;;;1.50;99.90;;;;;;5016490;28;20327;-73
2023/12/07 04:42:36;;;;;;;1.23;1.13;;;1.40;99.90;;;;;;5039002;28;20127;-73
2023/12/07 04:45:02;;;;;;;0.50;0.50;;;1.40;99.90;;;;;;5027352;28;20128;-73
2023/12/07 04:47:27;;;;;;;0.40;0.40;;;1.40;99.90;;;;;;5020413;28;20616;-73
2023/12/07 04:49:53;;;;;;;0.60;0.60;;;1.40;99.90;;;;;;5012827;28;20040;-73
2023/12/07 04:52:19;;;;;;;0.82;0.82;;;1.40;99.90;;;;;;5026779;28;20045;-73
2023/12/07 04:54:44;;;;;;;0.70;0.70;;;1.30;99.90;;;;;;5018690;28;20054;-73
2023/12/07 04:57:10;;;;;;;1.00;0.98;;;1.30;99.90;;;;;;5019423;28;20424;-73
2023/12/07 04:59:36;;;;;;;0.75;0.75;;;1.30;99.90;;;;;;5026698;28;20046;-74
2023/12/07 05:02:02;;;;;;;1.60;1.50;;;1.30;99.90;;;;;;5011360;28;20049;-73
2023/12/07 05:04:27;;;;;;;0.90;0.90;;;1.20;99.90;;;;;;5023761;28;20072;-73
2023/12/07 05:06:53;;;;;;;1.10;1.10;;;1.30;99.90;;;;;;5013609;28;20485;-73
2023/12/07 05:09:18;;;;;;;1.50;1.40;;;1.20;99.90;;;;;;5017455;28;20558;-73
2023/12/07 05:11:45;;;;;;;1.02;0.98;;;1.20;99.90;;;;;;5025046;28;20494;-73
2023/12/07 05:14:11;;;;;;;1.30;1.17;;;1.20;99.90;;;;;;5037549;28;20478;-73
2023/12/07 05:16:36;;;;;;;0.57;0.55;;;1.20;99.90;;;;;;5015939;28;20100;-73
2023/12/07 05:19:02;;;;;;;1.23;1.23;;;1.20;99.90;;;;;;5041875;28;20397;-73
2023/12/07 05:21:28;;;;;;;0.50;0.50;;;1.10;99.90;;;;;;5015185;28;20491;-73
2023/12/07 05:23:53;;;;;;;3.97;1.55;;;1.10;99.90;;;;;;5021356;28;20457;-73
2023/12/07 05:26:21;;;;;;;0.60;0.60;;;1.10;99.90;;;;;;5010160;28;20642;-73
2023/12/07 05:28:47;;;;;;;0.65;0.65;;;1.10;99.90;;;;;;5020804;28;20050;-73
2023/12/07 05:31:18;;;;;;;3.88;1.67;;;1.10;99.90;;;;;;5023443;28;20334;-73
2023/12/07 05:33:44;;;;;;;1.30;1.20;;;1.10;99.90;;;;;;5014199;28;20049;-73
2023/12/07 05:36:10;;;;;;;0.90;0.85;;;1.10;99.90;;;;;;5015959;28;20537;-73
2023/12/07 05:38:35;;;;;;;0.73;0.73;;;1.10;99.90;;;;;;5035033;28;20577;-73
2023/12/07 05:41:01;;;;;;;1.45;1.25;;;1.10;99.90;;;;;;5028467;28;20404;-73
2023/12/07 05:43:27;;;;;;;0.60;0.60;;;1.10;99.90;;;;;;5005022;28;20041;-73
2023/12/07 05:45:52;;;;;;;0.80;0.80;;;1.10;99.90;;;;;;5013543;28;20076;-73
2023/12/07 05:48:18;;;;;;;2.42;1.05;;;1.00;99.90;;;;;;5014722;28;20410;-73
2023/12/07 05:50:44;;;;;;;0.68;0.68;;;1.10;99.90;;;;;;5017157;28;20518;-73
2023/12/07 05:53:10;;;;;;;4.25;1.33;;;1.00;99.90;;;;;;5025919;28;20045;-73
2023/12/07 05:55:39;;;;;;;1.58;1.48;;;1.00;99.90;;;;;;5011515;28;20096;-73
2023/12/07 05:58:05;;;;;;;0.40;0.40;;;1.10;99.90;;;;;;5025089;28;20399;-73
2023/12/07 06:00:31;;;;;;;0.60;0.60;;;1.10;99.90;;;;;;5026899;28;20056;-73
2023/12/07 06:02:57;;;;;;;0.95;0.75;;;1.00;99.90;;;;;;5015569;28;20483;-73
2023/12/07 06:05:22;;;;;;;1.30;0.90;;;1.00;99.90;;;;;;5010172;28;20099;-72
2023/12/07 06:07:48;;;;;;;0.73;0.73;;;1.00;99.90;;;;;;5021156;28;20557;-73
2023/12/07 06:10:14;;;;;;;0.98;0.98;;;1.00;99.90;;;;;;5009118;28;20045;-73
2023/12/07 06:12:39;;;;;;;0.60;0.60;;;1.00;99.90;;;;;;5038477;28;20387;-73
2023/12/07 06:15:06;;;;;;;0.70;0.70;;;0.90;99.90;;;;;;5024507;28;20074;-73
2023/12/07 06:17:33;;;;;;;0.52;0.52;;;0.90;99.90;;;;;;5005531;28;20165;-73
2023/12/07 06:19:59;;;;;;;1.15;1.05;;;0.90;99.90;;;;;;5016000;28;20041;-73
2023/12/07 06:22:25;;;;;;;0.85;0.85;;;0.90;99.90;;;;;;5008777;28;20049;-72
2023/12/07 06:24:50;;;;;;;0.65;0.65;;;0.90;99.90;;;;;;5019161;28;20053;-73
2023/12/07 06:27:16;;;;;;;0.88;0.88;;;0.80;99.90;;;;;;5015568;28;20093;-72
2023/12/07 06:29:41;;;;;;;1.10;1.10;;;0.80;99.90;;;;;;5019123;28;20049;-72
2023/12/07 06:32:07;;;;;;;0.77;0.77;;;0.80;99.90;;;;;;5015938;28;20346;-73
2023/12/07 06:34:33;;;;;;;1.45;0.95;;;0.80;99.90;;;;;;5032791;28;20049;-73
2023/12/07 06:36:58;;;;;;;0.88;0.80;;;0.80;99.90;;;;;;5030599;28;20053;-72
2023/12/07 06:39:24;;;;;;;1.08;0.68;;;0.70;99.90;;;;;;5023885;28;20522;-73
2023/12/07 06:41:49;;;;;;;0.70;0.70;;;0.70;99.90;;;;;;5011335;28;20040;-72
2023/12/07 06:44:15;;;;;;;2.83;1.85;;;0.70;99.90;;;;;;5017545;28;20046;-73
2023/12/07 06:46:40;;;;;;;1.10;1.10;;;0.70;99.90;;;;;;5018404;28;20120;-72
2023/12/07 06:49:06;;;;;;;1.35;1.25;;;0.70;99.90;;;;;;5009861;28;20042;-73
2023/12/07 06:51:32;;;;;;;0.45;0.45;;;0.70;99.90;;;;;;5021126;28;20057;-72
2023/12/07 06:53:57;;;;;;;0.95;0.95;;;0.60;99.90;;;;;;5023149;28;20054;-72
2023/12/07 06:56:23;;;;;;;1.20;1.08;;;0.60;99.90;;;;;;5024506;28;20109;-72
2023/12/07 06:58:48;;;;;;;1.75;1.45;;;0.60;99.90;;;;;;5016279;28;20042;-72
2023/12/07 07:01:14;;;;;;;1.75;1.73;;;0.60;99.90;;;;;;5018150;28;20081;-72
2023/12/07 07:03:40;;;;;;;2.15;2.00;;;0.60;99.90;;;;;;5010179;28;20045;-72
2023/12/07 07:06:05;;;;;;;0.77;0.77;;;0.50;99.90;;;;;;5009140;28;20048;-72
2023/12/07 07:08:31;;;;;;;1.40;1.30;;;0.50;99.90;;;;;;5021528;28;20049;-72
2023/12/07 07:10:56;;;;;;;1.40;1.00;;;0.50;99.90;;;;;;5038076;28;20076;-72
2023/12/07 07:13:22;;;;;;;0.40;0.40;;;0.50;99.90;;;;;;5043526;28;20052;-72
2023/12/07 07:15:48;;;;;;;1.45;1.35;;;0.50;99.90;;;;;;5023849;28;20050;-72
2023/12/07 07:18:13;;;;;;;1.73;1.63;;;0.50;99.90;;;;;;5019100;28;20113;-72
2023/12/07 07:20:39;;;;;;;0.70;0.70;;;0.50;99.90;;;;;;5020937;28;20050;-72
2023/12/07 07:23:05;;;;;;;1.30;0.80;;;0.50;99.90;;;;;;5028637;28;20052;-72
2023/12/07 07:25:31;;;;;;;1.08;1.08;;;0.50;99.90;;;;;;5016584;28;20410;-72
2023/12/07 07:27:56;;;;;;;0.85;0.85;;;0.50;99.90;;;;;;5023408;28;20136;-73
2023/12/07 07:30:22;;;;;;;0.60;0.60;;;0.50;99.90;;;;;;5031578;28;20077;-72
2023/12/07 07:32:48;;;;;;;1.00;1.00;;;0.50;99.90;;;;;;5036904;28;20053;-72
2023/12/07 07:35:14;;;;;;;2.13;1.45;;;0.50;99.90;;;;;;5028181;28;20049;-72
2023/12/07 07:37:41;;;;;;;1.08;1.08;;;0.50;99.90;;;;;;5011818;28;20061;-72
2023/12/07 07:40:08;;;;;;;0.70;0.70;;;0.50;99.90;;;;;;5022855;28;20534;-72
2023/12/07 07:42:33;;;;;;;3.60;1.13;;;0.50;99.90;;;;;;5017668;28;20048;-72
2023/12/07 07:44:59;;;;;;;1.67;1.58;;;0.50;99.90;;;;;;5015574;28;20046;-72
2023/12/07 07:47:25;;;;;;;0.68;0.68;;;0.40;99.90;;;;;;5024916;28;20045;-72
2023/12/07 07:49:50;;;;;;;0.45;0.45;;;0.40;99.90;;;;;;5011461;28;20037;-72
2023/12/07 07:52:16;;;;;;;1.40;1.23;;;0.40;99.90;;;;;;5008131;28;20046;-72
2023/12/07 07:54:42;;;;;;;0.60;0.60;;;0.40;99.90;;;;;;5028266;28;20360;-72
2023/12/07 07:57:08;;;;;;;0.75;0.73;;;0.40;99.90;;;;;;5020925;28;20038;-72
2023/12/07 07:59:34;;;;;;;1.55;1.45;;;0.50;99.90;;;;;;5023155;28;20060;-72
2023/12/07 08:01:59;;;;;;;0.77;0.77;;;0.40;99.90;;;;;;5011865;28;20059;-72
2023/12/07 08:04:25;;;;;;;0.95;0.70;;;0.50;99.90;;;;;;5024150;28;20169;-72
2023/12/07 08:06:50;;;;;;;1.95;1.48;;;0.50;99.90;;;;;;5041394;28;20049;-72
2023/12/07 08:09:16;;;;;;;0.35;0.35;;;0.50;99.90;;;;;;5030021;28;20049;-72
2023/12/07 08:11:42;;;;;;;2.47;1.60;;;0.50;99.90;;;;;;5018830;28;20051;-72
2023/12/07 08:14:08;;;;;;;1.23;1.17;;;0.50;99.90;;;;;;5039066;28;20049;-72
2023/12/07 08:16:34;;;;;;;0.75;0.75;;;0.50;99.90;;;;;;5015945;28;20045;-72
2023/12/07 08:19:00;;;;;;;0.52;0.50;;;0.50;99.90;;;;;;5022999;28;20091;-72
2023/12/07 08:21:25;;;;;;;1.23;1.20;;;0.50;99.90;;;;;;5019686;28;20045;-72
2023/12/07 08:23:51;;;;;;;1.00;1.00;;;0.50;99.90;;;;;;5027370;28;20049;-72
2023/12/07 08:26:18;;;;;;;1.85;1.05;;;0.60;99.90;;;;;;5018225;28;20071;-72
2023/12/07 08:28:44;;;;;;;0.70;0.70;;;0.60;99.90;;;;;;5038371;28;20045;-72
2023/12/07 08:31:10;;;;;;;0.88;0.88;;;0.60;99.90;;;;;;5024653;28;20338;-72
2023/12/07 08:33:38;;;;;;;1.10;1.10;;;0.60;99.90;;;;;;5014138;28;20096;-72
2023/12/07 08:36:05;;;;;;;2.60;2.05;;;0.60;99.90;;;;;;5016861;28;20520;-72
2023/12/07 08:38:31;;;;;;;1.42;1.33;;;0.70;99.90;;;;;;5021261;28;20132;-72
2023/12/07 08:40:57;;;;;;;2.53;1.35;;;0.70;99.90;;;;;;5010132;28;20052;-72
2023/12/07 08:43:24;;;;;;;1.30;0.65;;;0.70;99.90;;;;;;5021950;28;20112;-72
2023/12/07 08:45:52;;;;;;;1.65;0.98;;;0.70;99.90;;;;;;5015587;28;20057;-72
2023/12/07 08:48:19;;;;;;;1.75;0.93;;;0.80;99.90;;;;;;5010274;28;20049;-72
2023/12/07 08:50:45;;;;;;;0.40;0.40;;;0.80;99.90;;;;;;5022870;28;20052;-72
2023/12/07 08:53:10;;;;;;;1.05;0.98;;;0.80;99.90;;;;;;5027002;28;20136;-72
2023/12/07 08:55:36;;;;;;;0.75;0.75;;;0.80;99.90;;;;;;5011407;28;20138;-72
2023/12/07 08:58:04;;;;;;;1.23;1.23;;;0.90;99.90;;;;;;5027431;28;20052;-72
2023/12/07 09:00:31;;;;;;;1.33;1.20;;;0.90;99.90;;;;;;5020518;28;20049;-72
2023/12/07 09:02:57;;;;;;;0.93;0.93;;;0.90;99.90;;;;;;5031033;28;20409;-72
2023/12/07 09:05:22;;;;;;;1.08;0.98;;;0.90;99.90;;;;;;5020153;28;20046;-72
2023/12/07 09:07:48;;;;;;;1.00;0.98;;;1.00;99.90;;;;;;5020925;28;20060;-72
2023/12/07 09:10:13;;;;;;;0.63;0.63;;;1.00;99.90;;;;;;5010178;28;20472;-72
2023/12/07 09:12:39;;;;;;;1.65;1.10;;;1.00;99.90;;;;;;5039350;28;20053;-72
2023/12/07 09:15:07;;;;;;;1.33;1.23;;;1.00;99.90;;;;;;5013407;28;20041;-72
2023/12/07 09:17:32;;;;;;;1.15;1.15;;;1.00;99.90;;;;;;5010270;28;20087;-72
2023/12/07 09:19:58;;;;;;;5.18;2.17;;;1.00;99.90;;;;;;5019455;28;20439;-72
2023/12/07 09:22:25;;;;;;;1.15;1.05;;;1.00;99.90;;;;;;5030028;28;20042;-72
2023/12/07 09:24:50;;;;;;;0.80;0.80;;;1.10;99.90;;;;;;5038607;28;20065;-72
2023/12/07 09:27:16;;;;;;;2.90;1.08;;;1.00;99.90;;;;;;5026320;28;20072;-72
2023/12/07 09:29:41;;;;;;;2.75;2.13;;;1.10;99.90;;;;;;5020524;28;20045;-72
2023/12/07 09:32:07;;;;;;;0.85;0.85;;;1.10;99.90;;;;;;5015561;28;20408;-72
2023/12/07 09:34:33;;;;;;;0.95;0.95;;;1.10;99.90;;;;;;5020603;28;20105;-72
2023/12/07 09:37:17;;;;;;;1.45;1.15;;;1.10;99.90;;;;;;5009398;28;20050;-72
2023/12/07 09:39:42;;;;;;;0.98;0.90;;;1.20;99.90;;;;;;5018823;28;20042;-72
2023/12/07 09:42:08;;;;;;;1.58;1.48;;;1.20;99.90;;;;;;5016956;28;20103;-72
2023/12/07 09:44:34;;;;;;;5.35;2.63;;;1.30;99.90;;;;;;5025468;28;20140;-72
2023/12/07 09:46:59;;;;;;;1.92;1.83;;;1.30;99.90;;;;;;5025002;28;20041;-72
2023/12/07 09:49:25;;;;;;;0.93;0.93;;;1.30;99.90;;;;;;4993786;28;20042;-72
2023/12/07 09:51:52;;;;;;;0.80;0.80;;;1.40;99.90;;;;;;5023823;28;20100;-72
2023/12/07 09:54:20;;;;;;;3.60;1.67;;;1.40;99.90;;;;;;5021098;28;20052;-72
2023/12/07 09:56:45;;;;;;;2.20;1.83;;;1.50;99.90;;;;;;5015114;28;20055;-72
2023/12/07 09:59:11;;;;;;;4.38;2.25;;;1.50;99.90;;;;;;5037638;28;20421;-72
2023/12/07 10:01:38;;;;;;;1.92;1.80;;;1.60;99.90;;;;;;5030078;28;20123;-72
2023/12/07 10:04:22;;;;;;;1.63;1.30;;;1.70;99.90;;;;;;5009412;28;20423;-72
2023/12/07 10:06:49;;;;;;;1.45;1.35;;;1.70;99.90;;;;;;5011852;28;20049;-72
2023/12/07 10:09:15;;;;;;;2.10;1.88;;;1.80;99.90;;;;;;5016669;28;20056;-72
2023/12/07 10:11:41;;;;;;;3.35;2.25;;;1.80;99.90;;;;;;5024247;28;20604;-72
2023/12/07 10:14:07;;;;;;;2.10;1.75;;;1.90;99.90;;;;;;5020522;28;20041;-72
2023/12/07 10:16:36;;;;;;;1.83;1.73;;;1.90;99.90;;;;;;5013846;28;20487;-72
2023/12/07 10:19:17;;;;;;;3.03;2.45;;;1.90;99.90;;;;;;5028113;28;20482;-72
2023/12/07 10:21:44;;;;;;;2.75;2.53;;;1.90;99.90;;;;;;5031976;28;20053;-72
2023/12/07 10:24:10;;;;;;;1.77;1.67;;;1.90;99.90;;;;;;5024575;28;20045;-72
2023/12/07 10:26:38;;;;;;;2.63;2.30;;;1.90;99.90;;;;;;5009842;28;20060;-73
2023/12/07 10:29:07;;;;;;;1.67;1.58;;;1.90;99.90;;;;;;5019278;28;20141;-72
2023/12/07 10:31:33;;;;;;;3.20;2.20;;;1.90;99.90;;;;;;5019337;28;20314;-73
2023/12/07 10:34:00;;;;;;;2.47;0.98;;;1.80;99.90;;;;;;5014932;28;20053;-72
2023/12/07 10:36:26;;;;;;;1.50;1.40;;;1.80;99.90;;;;;;4995960;28;20050;-72
2023/12/07 10:38:53;;;;;;;1.50;1.40;;;1.80;99.90;;;;;;5022018;28;20050;-72
2023/12/07 10:41:20;;;;;;;0.90;0.90;;;1.80;99.90;;;;;;5024218;28;20548;-73
2023/12/07 10:43:53;;;;;;;2.55;2.03;;;1.80;99.90;;;;;;5019347;28;20432;-72
2023/12/07 10:46:20;;;;;;;1.38;1.30;;;1.80;99.90;;;;;;5015552;28;20060;-73
2023/12/07 10:48:48;;;;;;;1.35;1.25;;;1.80;99.90;;;;;;5012867;28;20418;-73
2023/12/07 10:51:41;;;;;;;1.27;1.07;;;1.80;99.90;;;;;;5025593;28;20099;-73
2023/12/07 10:54:11;;;;;;;2.47;2.25;;;1.70;99.90;;;;;;4996110;28;20685;-73
2023/12/07 10:56:44;;;;;;;2.03;1.50;;;1.70;99.90;;;;;;5044334;28;20064;-73
2023/12/07 10:59:11;;;;;;;1.23;1.15;;;1.70;99.90;;;;;;5016975;28;20104;-73
2023/12/07 11:01:39;;;;;;;2.25;2.10;;;1.60;99.90;;;;;;5025816;28;20103;-73
2023/12/07 11:04:06;;;;;;;5.30;3.03;;;1.60;99.90;;;;;;5013035;28;20109;-73
2023/12/07 11:06:32;;;;;;;2.42;2.20;;;1.60;99.90;;;;;;5012958;28;20405;-73
2023/12/07 11:09:01;;;;;;;2.35;2.22;;;1.50;99.90;;;;;;5022439;28;20798;-73
2023/12/07 11:11:51;;;;;;;4.82;2.35;;;1.40;99.90;;;;;;5022848;28;20556;-73
2023/12/07 11:14:17;;;;;;;2.85;2.55;;;1.40;99.90;;;;;;5040062;28;20095;-73
2023/12/07 11:16:45;;;;;;;0.95;0.95;;;1.40;99.90;;;;;;5044681;28;20045;-73
2023/12/07 11:19:29;;;;;;;2.10;1.85;;;1.40;99.90;;;;;;5029957;28;20049;-73
2023/12/07 11:21:59;;;;;;;1.90;1.80;;;1.30;99.90;;;;;;5013459;28;20060;-73
2023/12/07 11:24:25;;;;;;;2.38;2.17;;;1.30;99.90;;;;;;5024671;28;20050;-73
2023/12/07 11:26:55;;;;;;;2.85;1.55;;;1.40;99.90;;;;;;5015438;28;20107;-73
2023/12/07 11:29:31;;;;;;;1.70;1.60;;;1.40;99.90;;;;;;5021910;28;20171;-73
2023/12/07 11:32:01;;;;;;;2.65;2.45;;;1.40;99.90;;;;;;5019347;28;20041;-73
2023/12/07 11:34:37;;;;;;;1.63;1.23;;;1.30;99.90;;;;;;5021942;28;20050;-74
2023/12/07 11:37:03;;;;;;;2.80;2.60;;;1.40;99.90;;;;;;5024367;28;20041;-73
2023/12/07 11:39:35;;;;;;;2.95;2.75;;;1.40;99.90;;;;;;5027363;28;20057;-73
2023/12/07 11:42:12;;;;;;;3.90;2.95;;;1.30;99.90;;;;;;5014415;28;20132;-73
2023/12/07 11:44:39;;;;;;;3.17;2.07;;;1.30;99.90;;;;;;5017314;28;20050;-73
2023/12/07 11:47:06;;;;;;;6.95;3.75;;;1.30;99.90;;;;;;5022946;28;20497;-73
2023/12/07 11:49:32;;;;;;;4.22;2.13;;;1.30;99.90;;;;;;5012154;28;20402;-73
2023/12/07 11:51:58;;;;;;;1.77;1.67;;;1.30;99.90;;;;;;5038065;28;20045;-73
2023/12/07 11:54:28;;;;;;;2.25;1.98;;;1.30;99.90;;;;;;5028250;28;20096;-73
2023/12/07 11:56:57;;;;;;;2.03;1.88;;;1.30;99.90;;;;;;5013715;28;20053;-73
2023/12/07 11:59:25;;;;;;;4.05;2.45;;;1.30;99.90;;;;;;4997588;28;20049;-73
2023/12/07 12:01:51;;;;;;;3.70;3.07;;;1.30;99.90;;;;;;5023884;28;20518;-73
2023/12/07 12:04:17;;;;;;;4.55;2.63;;;1.30;99.90;;;;;;5011563;28;20084;-73
2023/12/07 12:06:45;;;;;;;5.38;2.67;;;1.30;99.90;;;;;;5014640;28;20088;-73
2023/12/07 12:09:17;;;;;;;2.42;2.22;;;1.30;99.90;;;;;;5019085;28;20506;-73
2023/12/07 12:11:49;;;;;;;3.30;3.00;;;1.30;99.90;;;;;;5029705;28;20144;-73
2023/12/07 12:14:16;;;;;;;1.75;1.63;;;1.30;99.90;;;;;;5039602;28;20049;-73
2023/12/07 12:16:42;;;;;;;1.55;1.45;;;1.30;99.90;;;;;;5014910;28;20046;-73
2023/12/07 12:19:09;;;;;;;1.80;1.70;;;1.30;99.90;;;;;;5024261;28;20049;-73
2023/12/07 12:21:38;;;;;;;14.52;1.95;;;1.30;99.90;;;;;;5019805;28;20057;-73
2023/12/07 12:24:07;;;;;;;2.30;2.10;;;1.30;99.90;;;;;;5027627;28;20405;-73
2023/12/07 12:26:37;;;;;;;;;;;1.30;99.90;;;;;;5011982;28;20508;-73
2023/12/07 12:29:03;;;;;;;3.88;2.90;;;1.30;99.90;;;;;;5021928;28;20538;-73
2023/12/07 12:31:29;;;;;;;12.52;4.35;;;1.30;99.90;;;;;;5022198;28;20132;-73
2023/12/07 12:33:55;;;;;;;4.65;3.92;;;1.30;99.90;;;;;;5027305;28;20042;-73
2023/12/07 12:36:26;;;;;;;3.03;2.65;;;1.30;99.90;;;;;;5021038;28;20116;-73
2023/12/07 12:38:52;;;;;;;5.28;3.65;;;1.30;99.90;;;;;;5018927;28;20049;-73
2023/12/07 12:41:24;;;;;;;9.57;4.90;;;1.30;99.90;;;;;;5012918;28;20643;-73
2023/12/07 12:43:51;;;;;;;4.82;2.97;;;1.30;99.90;;;;;;5023591;28;20052;-73
2023/12/07 12:46:18;;;;;;;3.15;2.95;;;1.30;99.90;;;;;;5013635;28;20073;-73
2023/12/07 12:49:00;;;;;;;3.92;2.53;;;1.30;99.90;;;;;;5044072;28;20053;-72
2023/12/07 12:51:27;;;;;;;4.28;2.92;;;1.30;99.90;;;;;;5024209;28;20508;-73
2023/12/07 12:53:55;;;;;;;3.95;2.60;;;1.30;99.90;;;;;;5025345;28;20166;-73
2023/12/07 12:56:21;;;;;;;2.67;2.47;;;1.30;99.90;;;;;;5012578;28;20794;-73